createdAt,value
2022-09-21T00:01:28.981Z,99.90
2022-09-21T00:04:51.982Z,99.90
2022-09-21T00:08:16.219Z,99.90
2022-09-21T00:11:39.128Z,99.90
2022-09-21T00:15:02.067Z,99.90
2022-09-21T00:18:25.493Z,99.90
2022-09-21T00:21:48.905Z,99.90
2022-09-21T00:25:13.153Z,99.90
2022-09-21T00:28:36.457Z,99.90
2022-09-21T00:31:59.355Z,99.90
2022-09-21T00:35:22.793Z,99.90
2022-09-21T00:38:46.940Z,99.90
2022-09-21T00:42:11.685Z,99.90
2022-09-21T00:45:34.796Z,99.90
2022-09-21T00:48:59.408Z,99.90
2022-09-21T00:52:25.277Z,99.90
2022-09-21T00:55:52.902Z,99.90
2022-09-21T00:59:21.710Z,99.90
2022-09-21T01:02:46.845Z,99.90
2022-09-21T01:06:09.724Z,99.90
2022-09-21T01:09:33.351Z,99.90
2022-09-21T01:13:08.498Z,99.90
2022-09-21T01:16:38.796Z,99.90
2022-09-21T01:20:29.055Z,99.90
2022-09-21T01:24:33.490Z,99.90
2022-09-21T01:28:10.318Z,99.90
2022-09-21T01:31:39.778Z,99.90
2022-09-21T01:35:07.712Z,99.90
2022-09-21T01:38:37.206Z,99.90
2022-09-21T01:42:00.886Z,99.90
2022-09-21T01:45:30.334Z,99.90
2022-09-21T01:48:59.264Z,99.90
2022-09-21T01:52:30.879Z,99.90
2022-09-21T01:55:57.828Z,99.90
2022-09-21T01:59:27.106Z,99.90
2022-09-21T02:02:58.369Z,99.90
2022-09-21T02:06:22.816Z,99.90
2022-09-21T02:09:47.497Z,99.90
2022-09-21T02:13:11.308Z,99.90
2022-09-21T02:16:40.120Z,99.90
2022-09-21T02:20:17.475Z,99.90
2022-09-21T02:23:49.916Z,99.90
2022-09-21T02:27:23.101Z,99.90
2022-09-21T02:30:54.877Z,99.90
2022-09-21T02:34:23.135Z,99.90
2022-09-21T02:37:51.223Z,99.90
2022-09-21T02:41:20.393Z,99.90
2022-09-21T02:44:48.714Z,99.90
2022-09-21T02:48:15.859Z,99.90
2022-09-21T02:51:44.665Z,99.90
2022-09-21T02:55:08.743Z,99.90
2022-09-21T02:58:35.273Z,99.90
2022-09-21T03:01:58.229Z,99.90
2022-09-21T03:05:21.152Z,99.90
2022-09-21T03:08:44.127Z,99.90
2022-09-21T03:12:07.245Z,99.90
2022-09-21T03:15:31.525Z,99.90
2022-09-21T03:18:54.435Z,99.90
2022-09-21T03:22:17.837Z,99.90
2022-09-21T03:25:40.823Z,99.90
2022-09-21T03:29:05.155Z,99.90
2022-09-21T03:32:29.492Z,99.90
2022-09-21T03:35:52.821Z,99.90
2022-09-21T03:39:15.833Z,99.90
2022-09-21T03:42:38.892Z,99.90
2022-09-21T03:46:01.845Z,99.90
2022-09-21T03:49:26.647Z,99.90
2022-09-21T03:52:49.641Z,99.90
2022-09-21T03:56:12.529Z,99.90
2022-09-21T03:59:35.864Z,99.90
2022-09-21T04:02:58.844Z,99.90
2022-09-21T04:06:23.137Z,99.90
2022-09-21T04:09:46.028Z,99.90
2022-09-21T04:13:09.649Z,99.90
2022-09-21T04:16:32.816Z,99.90
2022-09-21T04:19:55.717Z,99.90
2022-09-21T04:23:20.448Z,99.90
2022-09-21T04:26:43.352Z,99.90
2022-09-21T04:30:07.500Z,99.90
2022-09-21T04:33:30.971Z,99.90
2022-09-21T04:36:54.707Z,99.90
2022-09-21T04:40:18.978Z,99.90
2022-09-21T04:43:43.400Z,99.90
2022-09-21T04:47:06.445Z,99.90
2022-09-21T04:50:29.328Z,99.90
2022-09-21T04:53:59.355Z,99.90
2022-09-21T04:57:23.631Z,99.90
2022-09-21T05:00:50.829Z,99.90
2022-09-21T05:04:13.763Z,99.90
2022-09-21T05:07:36.629Z,99.90
2022-09-21T05:10:58.543Z,99.90
2022-09-21T05:14:22.809Z,99.90
2022-09-21T05:17:46.638Z,99.90
2022-09-21T05:21:12.065Z,99.90
2022-09-21T05:24:35.134Z,99.90
2022-09-21T05:27:58.143Z,99.90
2022-09-21T05:31:35.401Z,99.90
2022-09-21T05:35:06.509Z,99.90
2022-09-21T05:38:29.942Z,99.90
2022-09-21T05:41:53.545Z,99.90
2022-09-21T05:45:18.185Z,99.90
2022-09-21T05:48:48.486Z,99.90
2022-09-21T05:52:20.747Z,99.90
2022-09-21T05:55:53.288Z,99.90
2022-09-21T05:59:40.391Z,99.90
2022-09-21T06:03:28.740Z,99.90
2022-09-21T06:06:53.025Z,99.90
2022-09-21T06:10:16.503Z,99.90
2022-09-21T06:13:40.910Z,99.90
2022-09-21T06:17:04.111Z,99.90
2022-09-21T06:20:26.973Z,99.90
2022-09-21T06:23:51.209Z,99.90
2022-09-21T06:27:14.117Z,99.90
2022-09-21T06:30:37.840Z,99.90
2022-09-21T06:34:01.415Z,99.90
2022-09-21T06:37:24.290Z,99.90
2022-09-21T06:40:48.922Z,99.90
2022-09-21T06:44:11.875Z,99.90
2022-09-21T06:47:34.741Z,99.90
2022-09-21T06:51:01.221Z,99.90
2022-09-21T06:54:24.517Z,99.90
2022-09-21T06:57:49.351Z,99.90
2022-09-21T07:01:13.975Z,99.90
2022-09-21T07:04:37.129Z,99.90
2022-09-21T07:08:00.427Z,99.90
2022-09-21T07:11:23.954Z,99.90
2022-09-21T07:14:48.213Z,99.90
2022-09-21T07:18:14.969Z,99.90
2022-09-21T07:21:37.948Z,99.90
2022-09-21T07:25:01.528Z,96.70
2022-09-21T07:28:24.449Z,92.50
2022-09-21T07:31:49.051Z,86.70
2022-09-21T07:35:12.027Z,80.20
2022-09-21T07:38:37.449Z,74.80
2022-09-21T07:42:00.349Z,67.60
2022-09-21T07:45:23.220Z,59.00
2022-09-21T07:48:47.825Z,58.80
2022-09-21T07:52:11.398Z,55.10
2022-09-21T07:55:34.341Z,54.30
2022-09-21T07:59:09.190Z,52.80
2022-09-21T08:02:32.233Z,48.80
2022-09-21T08:05:59.800Z,44.00
2022-09-21T08:09:22.810Z,39.50
2022-09-21T08:12:45.722Z,36.70
2022-09-21T08:16:08.638Z,51.40
2022-09-21T08:19:31.864Z,29.00
2022-09-21T08:22:58.001Z,23.40
2022-09-21T08:26:23.103Z,22.60
2022-09-21T08:29:46.139Z,18.60
2022-09-21T08:33:09.442Z,11.40
2022-09-21T08:36:32.486Z,3.40
2022-09-21T08:39:56.708Z,1.00
2022-09-21T08:43:25.588Z,1.00
2022-09-21T08:46:53.901Z,1.00
2022-09-21T08:50:34.908Z,1.00
2022-09-21T08:54:02.228Z,1.00
2022-09-21T08:57:30.800Z,1.00
2022-09-21T09:01:07.212Z,1.00
2022-09-21T09:04:51.253Z,1.00
2022-09-21T09:08:56.245Z,1.00
2022-09-21T09:12:34.744Z,1.00
2022-09-21T09:16:05.120Z,1.00
2022-09-21T09:19:35.105Z,1.00
2022-09-21T09:23:07.017Z,1.00
2022-09-21T09:26:36.559Z,1.00
2022-09-21T09:30:05.123Z,1.00
2022-09-21T09:33:31.761Z,1.00
2022-09-21T09:37:01.297Z,1.00
2022-09-21T09:40:50.701Z,1.00
2022-09-21T09:44:26.441Z,1.00
2022-09-21T09:48:01.018Z,1.00
2022-09-21T09:51:24.026Z,1.00
2022-09-21T09:54:48.137Z,1.00
2022-09-21T09:58:19.016Z,1.00
2022-09-21T10:01:43.947Z,1.00
2022-09-21T10:05:19.665Z,1.00
2022-09-21T10:08:46.345Z,1.00
2022-09-21T10:12:20.072Z,1.00
2022-09-21T10:15:46.195Z,1.00
2022-09-21T10:19:16.937Z,1.00
2022-09-21T10:22:41.444Z,1.00
2022-09-21T10:26:08.785Z,1.00
2022-09-21T10:29:39.502Z,1.00
2022-09-21T10:33:02.845Z,1.00
2022-09-21T10:36:34.074Z,1.00
2022-09-21T10:39:58.455Z,1.00
2022-09-21T10:43:27.244Z,1.00
2022-09-21T10:46:51.482Z,1.00
2022-09-21T10:50:25.218Z,1.00
2022-09-21T10:53:53.802Z,1.00
2022-09-21T10:57:21.107Z,1.00
2022-09-21T11:00:47.727Z,1.00
2022-09-21T11:04:16.258Z,1.00
2022-09-21T11:07:46.117Z,1.00
2022-09-21T11:11:30.868Z,1.00
2022-09-21T11:15:01.959Z,1.00
2022-09-21T11:18:38.003Z,1.00
2022-09-21T11:22:08.802Z,1.00
2022-09-21T11:25:42.057Z,1.00
2022-09-21T11:29:12.109Z,1.00
2022-09-21T11:33:02.648Z,1.00
2022-09-21T11:36:38.226Z,1.00
2022-09-21T11:40:12.133Z,1.00
2022-09-21T11:43:48.948Z,1.00
2022-09-21T11:47:25.124Z,1.00
2022-09-21T11:51:02.452Z,1.00
2022-09-21T11:54:52.251Z,1.00
2022-09-21T11:58:23.523Z,1.00
2022-09-21T12:01:58.627Z,1.00
2022-09-21T12:05:26.101Z,1.00
2022-09-21T12:09:22.125Z,1.00
2022-09-21T12:12:50.133Z,1.00
2022-09-21T12:16:22.395Z,1.00
2022-09-21T12:19:51.413Z,1.00
2022-09-21T12:23:22.997Z,1.00
2022-09-21T12:26:51.484Z,1.00
2022-09-21T12:30:17.079Z,1.00
2022-09-21T12:33:46.946Z,1.00
2022-09-21T12:37:14.878Z,1.00
2022-09-21T12:40:49.830Z,1.00
2022-09-21T12:44:23.911Z,1.00
2022-09-21T12:47:58.082Z,1.00
2022-09-21T12:51:30.158Z,1.00
2022-09-21T12:55:00.482Z,1.00
2022-09-21T12:58:40.636Z,1.00
2022-09-21T13:02:20.001Z,1.00
2022-09-21T13:05:53.251Z,1.00
2022-09-21T13:09:20.020Z,1.00
2022-09-21T13:12:46.456Z,1.00
2022-09-21T13:16:25.524Z,1.00
2022-09-21T13:19:58.535Z,1.00
2022-09-21T13:23:26.037Z,1.00
2022-09-21T13:26:55.319Z,1.00
2022-09-21T13:30:32.485Z,1.00
2022-09-21T13:34:17.745Z,1.00
2022-09-21T13:37:42.025Z,1.00
2022-09-21T13:41:25.891Z,1.00
2022-09-21T13:44:59.753Z,1.00
2022-09-21T13:48:29.348Z,1.00
2022-09-21T13:51:56.221Z,1.00
2022-09-21T13:55:28.049Z,1.00
2022-09-21T13:58:53.755Z,1.00
2022-09-21T14:02:32.814Z,1.00
2022-09-21T14:06:02.080Z,1.00
2022-09-21T14:09:28.365Z,1.00
2022-09-21T14:12:53.028Z,1.00
2022-09-21T14:16:59.505Z,1.00
2022-09-21T14:20:32.688Z,1.00
2022-09-21T14:24:20.097Z,1.00
2022-09-21T14:27:46.049Z,1.00
2022-09-21T14:31:17.271Z,1.00
2022-09-21T14:34:43.409Z,1.00
2022-09-21T14:38:15.576Z,1.00
2022-09-21T14:41:41.385Z,1.00
2022-09-21T14:45:04.881Z,1.00
2022-09-21T14:48:39.072Z,1.00
2022-09-21T14:52:18.284Z,1.00
2022-09-21T14:55:59.518Z,1.00
2022-09-21T14:59:39.614Z,1.00
2022-09-21T15:03:24.325Z,1.00
2022-09-21T15:07:16.561Z,1.00
2022-09-21T15:10:57.135Z,1.00
2022-09-21T15:14:28.016Z,1.00
2022-09-21T15:17:59.717Z,1.00
2022-09-21T15:21:26.764Z,1.00
2022-09-21T15:24:51.626Z,1.00
2022-09-21T15:28:16.200Z,1.00
2022-09-21T15:31:42.482Z,1.00
2022-09-21T15:35:15.214Z,1.00
2022-09-21T15:38:39.107Z,1.00
2022-09-21T15:42:22.483Z,1.00
2022-09-21T15:45:54.491Z,1.00
2022-09-21T15:49:22.108Z,1.00
2022-09-21T15:52:49.784Z,1.00
2022-09-21T15:56:19.577Z,1.00
2022-09-21T15:59:47.290Z,1.00
2022-09-21T16:03:21.009Z,1.00
2022-09-21T16:06:47.723Z,1.00
2022-09-21T16:10:39.707Z,1.00
2022-09-21T16:14:27.410Z,1.00
2022-09-21T16:18:02.787Z,1.00
2022-09-21T16:21:29.157Z,1.00
2022-09-21T16:24:55.274Z,1.00
2022-09-21T16:28:36.619Z,1.00
2022-09-21T16:32:23.258Z,1.00
2022-09-21T16:35:46.738Z,1.00
2022-09-21T16:39:15.550Z,1.00
2022-09-21T16:42:39.623Z,1.00
2022-09-21T16:46:03.428Z,1.00
2022-09-21T16:49:30.665Z,1.00
2022-09-21T16:52:53.830Z,1.00
2022-09-21T16:56:18.224Z,1.00
2022-09-21T16:59:41.319Z,1.00
2022-09-21T17:03:04.183Z,1.00
2022-09-21T17:06:27.084Z,1.00
2022-09-21T17:09:50.549Z,1.00
2022-09-21T17:13:16.154Z,1.00
2022-09-21T17:16:39.068Z,1.00
2022-09-21T17:20:08.030Z,1.00
2022-09-21T17:23:31.001Z,1.00
2022-09-21T17:26:53.918Z,1.00
2022-09-21T17:30:18.225Z,1.00
2022-09-21T17:33:41.356Z,1.00
2022-09-21T17:37:04.396Z,1.00
2022-09-21T17:40:29.756Z,1.00
2022-09-21T17:44:04.637Z,1.00
2022-09-21T17:47:31.099Z,1.00
2022-09-21T17:50:54.890Z,1.00
2022-09-21T17:54:17.819Z,1.00
2022-09-21T17:57:53.140Z,1.00
2022-09-21T18:01:27.552Z,1.00
2022-09-21T18:04:57.720Z,1.00
2022-09-21T18:08:21.264Z,1.00
2022-09-21T18:12:26.852Z,1.00
2022-09-21T18:15:59.740Z,1.00
2022-09-21T18:19:38.169Z,1.00
2022-09-21T18:23:15.698Z,1.00
2022-09-21T18:26:39.154Z,1.00
2022-09-21T18:30:03.142Z,1.00
2022-09-21T18:33:38.967Z,1.00
2022-09-21T18:37:13.206Z,1.00
2022-09-21T18:40:46.771Z,1.00
2022-09-21T18:44:16.028Z,1.00
2022-09-21T18:47:45.632Z,1.00
2022-09-21T18:51:18.164Z,1.00
2022-09-21T18:54:41.457Z,1.00
2022-09-21T18:58:06.217Z,1.00
2022-09-21T19:01:32.978Z,1.00
2022-09-21T19:04:59.093Z,1.00
2022-09-21T19:08:28.474Z,1.00
2022-09-21T19:11:58.276Z,1.00
2022-09-21T19:15:58.674Z,1.00
2022-09-21T19:19:18.580Z,1.00
2022-09-21T19:22:51.917Z,1.00
2022-09-21T19:26:19.578Z,1.00
2022-09-21T19:29:58.618Z,1.00
2022-09-21T19:33:49.057Z,1.00
2022-09-21T19:37:13.075Z,1.00
2022-09-21T19:40:40.120Z,1.00
2022-09-21T19:44:15.216Z,1.00
2022-09-21T19:47:44.377Z,1.00
2022-09-21T19:51:17.421Z,1.00
2022-09-21T19:54:58.157Z,1.00
2022-09-21T19:58:39.172Z,1.00
2022-09-21T20:02:11.063Z,1.00
2022-09-21T20:05:41.646Z,1.00
2022-09-21T20:09:12.455Z,1.00
2022-09-21T20:12:42.164Z,1.00
2022-09-21T20:16:19.319Z,1.00
2022-09-21T20:19:51.164Z,1.00
2022-09-21T20:23:14.639Z,1.00
2022-09-21T20:26:39.775Z,1.00
2022-09-21T20:30:02.938Z,1.00
2022-09-21T20:33:26.899Z,1.00
2022-09-21T20:36:49.793Z,1.00
2022-09-21T20:40:13.735Z,1.00
2022-09-21T20:43:37.995Z,1.00
2022-09-21T20:47:00.920Z,1.00
2022-09-21T20:50:30.191Z,1.00
2022-09-21T20:53:53.085Z,1.00
2022-09-21T20:57:16.234Z,1.00
2022-09-21T21:00:40.932Z,1.00
2022-09-21T21:04:03.943Z,1.00
2022-09-21T21:07:30.507Z,1.00
2022-09-21T21:10:56.825Z,1.00
2022-09-21T21:14:19.762Z,1.00
2022-09-21T21:17:44.007Z,1.00
2022-09-21T21:21:06.982Z,1.00
2022-09-21T21:24:42.184Z,1.00
2022-09-21T21:28:05.302Z,1.00
2022-09-21T21:31:28.444Z,1.00
2022-09-21T21:34:53.493Z,1.00
2022-09-21T21:38:16.381Z,1.00
2022-09-21T21:41:39.381Z,1.00
2022-09-21T21:45:02.597Z,1.00
2022-09-21T21:48:25.484Z,1.00
2022-09-21T21:51:50.316Z,1.00
2022-09-21T21:55:14.185Z,1.00
2022-09-21T21:58:37.695Z,1.00
2022-09-21T22:02:02.181Z,1.00
2022-09-21T22:05:25.164Z,1.00
2022-09-21T22:08:49.961Z,1.00
2022-09-21T22:12:12.916Z,1.00
2022-09-21T22:15:35.841Z,1.00
2022-09-21T22:19:00.004Z,1.00
2022-09-21T22:22:22.887Z,1.00
2022-09-21T22:25:47.141Z,1.00
2022-09-21T22:29:11.695Z,1.00
2022-09-21T22:32:34.766Z,1.00
2022-09-21T22:36:02.793Z,1.00
2022-09-21T22:39:25.718Z,1.00
2022-09-21T22:42:50.031Z,1.00
2022-09-21T22:46:13.739Z,1.00
2022-09-21T22:49:36.693Z,1.00
2022-09-21T22:52:59.603Z,1.00
2022-09-21T22:56:23.806Z,1.00
2022-09-21T22:59:48.044Z,1.00
2022-09-21T23:03:11.942Z,1.00
2022-09-21T23:06:36.648Z,1.00
2022-09-21T23:09:59.826Z,1.00
2022-09-21T23:13:23.432Z,1.00
2022-09-21T23:16:47.995Z,1.00
2022-09-21T23:20:12.365Z,1.00
2022-09-21T23:23:35.508Z,1.00
2022-09-21T23:26:58.468Z,1.00
2022-09-21T23:30:21.632Z,1.00
2022-09-21T23:33:47.475Z,1.00
2022-09-21T23:37:10.363Z,1.00
2022-09-21T23:40:33.318Z,1.00
2022-09-21T23:43:57.086Z,1.00
2022-09-21T23:47:19.994Z,1.00
2022-09-21T23:50:45.726Z,1.90
2022-09-21T23:54:09.027Z,7.00
2022-09-21T23:57:31.905Z,11.90
